Terminal Aerodrome Forecast
Issued by NWS

Home | Current Version | Previous Version | Text Only | Print | Product List | Glossary On
Versions: 1 2 3 4 5 6 7 8 9 10 11 12 13 14
000
FTUS45 KRIW 022327
TAFRKS
TAF
KRKS 022327Z 0300/0324 VRB05KT P6SM SCT030
      TEMPO 0300/0301 BKN030
     FM030200 27008KT P6SM SKC
     FM030900 25012G18KT P6SM FEW110 SCT200
     FM031700 26022G32KT P6SM FEW110 SCT200=

USA.gov is the U.S. government's official web portal to all federal, state and local government web resources and services.